createdAt,value
2018-03-11T00:01:08.040Z,19.67
2018-03-11T00:03:35.084Z,19.73
2018-03-11T00:06:02.132Z,19.57
2018-03-11T00:08:29.187Z,19.53
2018-03-11T00:10:56.844Z,19.37
2018-03-11T00:13:24.302Z,19.67
2018-03-11T00:15:51.353Z,20.17
2018-03-11T00:18:18.911Z,19.87
2018-03-11T00:20:46.676Z,21.33
2018-03-11T00:23:13.724Z,20.50
2018-03-11T00:25:40.779Z,22.50
2018-03-11T00:28:07.826Z,20.80
2018-03-11T00:30:36.230Z,19.93
2018-03-11T00:33:03.768Z,21.47
2018-03-11T00:35:30.811Z,20.23
2018-03-11T00:37:57.861Z,19.83
2018-03-11T00:40:24.853Z,20.17
2018-03-11T00:42:51.957Z,19.80
2018-03-11T00:45:19.004Z,18.97
2018-03-11T00:47:46.673Z,20.13
2018-03-11T00:50:13.717Z,20.03
2018-03-11T00:52:40.764Z,19.83
2018-03-11T00:55:08.938Z,19.13
2018-03-11T00:57:35.892Z,18.73
2018-03-11T01:00:02.936Z,18.53
2018-03-11T01:02:31.115Z,19.67
2018-03-11T01:04:59.284Z,19.07
2018-03-11T01:07:26.337Z,19.57
2018-03-11T01:09:54.303Z,18.73
2018-03-11T01:12:21.351Z,19.67
2018-03-11T01:14:48.299Z,19.57
2018-03-11T01:17:15.345Z,19.57
2018-03-11T01:19:42.856Z,19.07
2018-03-11T01:22:09.857Z,21.17
2018-03-11T01:24:38.028Z,19.27
2018-03-11T01:27:05.082Z,20.03
2018-03-11T01:29:32.128Z,20.20
2018-03-11T01:31:59.186Z,19.00
2018-03-11T01:34:26.229Z,19.20
2018-03-11T01:36:53.894Z,20.40
2018-03-11T01:39:20.932Z,20.30
2018-03-11T01:41:47.988Z,20.57
2018-03-11T01:44:15.031Z,21.57
2018-03-11T01:46:42.085Z,21.63
2018-03-11T01:49:09.132Z,20.33
2018-03-11T01:51:36.182Z,21.17
2018-03-11T01:54:03.224Z,19.63
2018-03-11T01:56:30.584Z,21.23
2018-03-11T01:58:57.629Z,20.87
2018-03-11T02:01:25.598Z,20.40
2018-03-11T02:03:52.852Z,19.77
2018-03-11T02:06:36.511Z,20.03
2018-03-11T02:09:21.009Z,20.67
2018-03-11T02:11:53.925Z,20.00
2018-03-11T02:14:22.520Z,19.67
2018-03-11T02:16:49.572Z,20.73
2018-03-11T02:19:17.952Z,21.00
2018-03-11T02:21:47.115Z,22.67
2018-03-11T02:24:17.220Z,19.80
2018-03-11T02:26:45.953Z,20.57
2018-03-11T02:29:13.820Z,21.47
2018-03-11T02:31:40.869Z,20.83
2018-03-11T02:34:07.933Z,19.60
2018-03-11T02:36:37.118Z,20.33
2018-03-11T02:39:09.602Z,19.70
2018-03-11T02:41:41.305Z,20.60
2018-03-11T02:44:10.044Z,19.43
2018-03-11T02:46:42.264Z,20.80
2018-03-11T02:49:09.265Z,19.83
2018-03-11T02:51:37.429Z,19.37
2018-03-11T02:54:12.569Z,16.67
2018-03-11T02:56:44.314Z,16.20
2018-03-11T02:59:13.226Z,16.23
2018-03-11T03:01:43.307Z,18.07
2018-03-11T03:04:14.801Z,17.03
2018-03-11T03:06:41.746Z,18.07
2018-03-11T03:09:11.340Z,17.37
2018-03-11T03:11:44.847Z,17.43
2018-03-11T03:14:22.028Z,17.90
2018-03-11T03:16:57.382Z,17.03
2018-03-11T03:19:27.913Z,18.00
2018-03-11T03:22:04.297Z,19.20
2018-03-11T03:24:35.421Z,18.10
2018-03-11T03:27:04.115Z,17.73
2018-03-11T03:29:31.975Z,17.70
2018-03-11T03:32:04.586Z,16.87
2018-03-11T03:34:55.555Z,18.20
2018-03-11T03:37:23.483Z,16.60
2018-03-11T03:39:53.811Z,18.70
2018-03-11T03:42:21.515Z,17.70
2018-03-11T03:44:50.771Z,16.77
2018-03-11T03:47:19.003Z,17.70
2018-03-11T03:49:46.199Z,16.70
2018-03-11T03:52:13.452Z,17.30
2018-03-11T03:54:40.503Z,16.70
2018-03-11T03:57:09.186Z,17.00
2018-03-11T03:59:37.670Z,16.40
2018-03-11T04:02:06.355Z,19.10
2018-03-11T04:04:35.154Z,17.83
2018-03-11T04:07:03.423Z,17.13
2018-03-11T04:09:32.315Z,16.40
2018-03-11T04:12:01.719Z,18.47
2018-03-11T04:14:30.823Z,18.73
2018-03-11T04:16:59.235Z,18.63
2018-03-11T04:19:26.757Z,19.87
2018-03-11T04:21:55.752Z,21.27
2018-03-11T04:24:22.742Z,21.87
2018-03-11T04:26:50.963Z,20.43
2018-03-11T04:29:18.227Z,19.63
2018-03-11T04:31:45.274Z,18.37
2018-03-11T04:34:14.478Z,18.33
2018-03-11T04:36:46.267Z,18.60
2018-03-11T04:39:13.280Z,19.90
2018-03-11T04:41:41.047Z,21.33
2018-03-11T04:44:08.667Z,21.07
2018-03-11T04:46:39.319Z,21.30
2018-03-11T04:51:46.397Z,20.13
2018-03-11T04:54:17.623Z,22.03
2018-03-11T04:56:49.171Z,20.90
2018-03-11T04:59:18.343Z,21.57
2018-03-11T05:01:48.976Z,21.80
2018-03-11T05:07:32.323Z,21.20
2018-03-11T05:10:06.793Z,20.80
2018-03-11T05:12:37.591Z,20.40
2018-03-11T05:15:06.374Z,21.77
2018-03-11T05:17:34.139Z,22.10
2018-03-11T05:23:53.136Z,20.40
2018-03-11T05:26:21.712Z,21.27
2018-03-11T05:31:48.088Z,20.77
2018-03-11T05:36:57.932Z,19.60
2018-03-11T05:39:26.114Z,20.40
2018-03-11T05:44:30.253Z,22.03
2018-03-11T05:46:58.318Z,20.53
2018-03-11T05:49:31.511Z,19.53
2018-03-11T05:52:01.011Z,19.77
2018-03-11T05:54:27.957Z,24.13
2018-03-11T05:59:52.365Z,51.03
2018-03-11T06:02:20.030Z,24.97
2018-03-11T06:04:53.629Z,18.47
2018-03-11T06:07:24.587Z,21.07
2018-03-11T06:09:51.619Z,21.47
2018-03-11T06:12:21.341Z,19.33
2018-03-11T06:14:50.126Z,18.00
2018-03-11T06:17:17.170Z,17.60
2018-03-11T06:19:50.770Z,15.97
2018-03-11T06:22:18.485Z,17.73
2018-03-11T06:24:50.694Z,16.43
2018-03-11T06:27:20.522Z,16.43
2018-03-11T06:29:50.236Z,16.00
2018-03-11T06:32:17.277Z,16.77
2018-03-11T06:34:46.687Z,14.77
2018-03-11T06:37:17.322Z,15.87
2018-03-11T06:39:44.421Z,14.30
2018-03-11T06:42:16.458Z,15.63
2018-03-11T06:44:49.517Z,14.90
2018-03-11T06:47:24.144Z,14.80
2018-03-11T06:50:01.114Z,14.63
2018-03-11T06:52:31.736Z,15.03
2018-03-11T06:54:58.703Z,14.20
2018-03-11T06:57:26.162Z,16.07
2018-03-11T06:59:53.619Z,14.57
2018-03-11T07:02:21.594Z,15.33
2018-03-11T07:04:55.910Z,37.30
2018-03-11T07:21:12.207Z,14.93
2018-03-11T07:23:39.256Z,14.73
2018-03-11T07:26:06.301Z,15.53
2018-03-11T07:28:33.453Z,13.47
2018-03-11T07:31:00.502Z,14.03
2018-03-11T07:33:27.652Z,14.47
2018-03-11T07:35:54.705Z,13.77
2018-03-11T07:38:21.749Z,14.23
2018-03-11T07:49:32.130Z,16.87
2018-03-11T07:52:00.358Z,33.50
2018-03-11T07:54:28.376Z,17.33
2018-03-11T07:56:55.363Z,27.03
2018-03-11T07:59:23.733Z,15.93
2018-03-11T08:01:55.503Z,17.53
2018-03-11T08:11:10.314Z,16.17
2018-03-11T08:13:37.364Z,18.30
2018-03-11T08:16:04.666Z,16.40
2018-03-11T08:18:32.995Z,22.40
2018-03-11T08:20:59.947Z,21.83
2018-03-11T08:23:29.175Z,19.73
2018-03-11T08:25:56.400Z,48.80
2018-03-11T08:28:23.956Z,83.43
2018-03-11T08:30:51.008Z,91.17
2018-03-11T08:33:18.051Z,83.47
2018-03-11T08:35:45.002Z,54.40
2018-03-11T08:38:12.045Z,32.60
2018-03-11T08:40:39.097Z,58.87
2018-03-11T08:43:06.148Z,51.30
2018-03-11T08:45:35.496Z,52.57
2018-03-11T08:48:02.800Z,55.37
2018-03-11T08:50:30.769Z,38.90
2018-03-11T08:52:57.716Z,34.10
2018-03-11T08:55:24.766Z,47.53
2018-03-11T08:57:51.820Z,54.77
2018-03-11T09:00:19.891Z,44.20
2018-03-11T09:02:47.188Z,34.17
2018-03-11T09:05:14.290Z,29.77
2018-03-11T09:07:41.363Z,25.97
2018-03-11T09:10:08.386Z,24.37
2018-03-11T09:12:36.567Z,29.53
2018-03-11T09:15:03.612Z,22.63
2018-03-11T09:17:30.659Z,29.43
2018-03-11T09:19:57.714Z,22.83
2018-03-11T09:22:24.608Z,24.43
2018-03-11T09:24:51.712Z,22.97
2018-03-11T09:27:19.674Z,22.37
2018-03-11T09:29:46.825Z,24.50
2018-03-11T09:32:13.874Z,25.33
2018-03-11T09:34:40.926Z,23.30
2018-03-11T09:37:07.968Z,26.93
2018-03-11T09:39:34.957Z,26.97
2018-03-11T09:42:01.963Z,23.17
2018-03-11T09:44:29.011Z,20.87
2018-03-11T09:46:56.374Z,17.53
2018-03-11T09:49:23.415Z,19.40
2018-03-11T09:51:51.596Z,17.43
2018-03-11T09:54:18.845Z,18.27
2018-03-11T09:56:47.636Z,20.33
2018-03-11T09:59:14.892Z,21.83
2018-03-11T10:01:42.350Z,19.03
2018-03-11T10:04:11.275Z,20.40
2018-03-11T10:06:38.497Z,18.17
2018-03-11T10:09:05.954Z,21.10
2018-03-11T10:11:33.509Z,16.73
2018-03-11T10:14:00.562Z,17.70
2018-03-11T10:16:27.607Z,19.57
2018-03-11T10:18:55.577Z,19.63
2018-03-11T10:21:22.630Z,17.57
2018-03-11T10:23:49.674Z,18.63
2018-03-11T11:02:24.567Z,15.23
2018-03-11T11:05:01.729Z,14.80
2018-03-11T11:07:32.587Z,18.67
2018-03-11T11:21:27.902Z,16.47
2018-03-11T11:40:28.931Z,10.70
2018-03-11T11:48:13.630Z,27.37
2018-03-11T11:50:41.626Z,18.07
2018-03-11T11:53:08.647Z,20.67
2018-03-11T11:55:35.602Z,32.47
2018-03-11T11:58:02.642Z,20.70
2018-03-11T12:00:29.692Z,14.03
2018-03-11T12:02:56.638Z,10.70
2018-03-11T12:05:23.588Z,13.97
2018-03-11T12:07:50.633Z,7.67
2018-03-11T12:10:17.690Z,11.60
2018-03-11T12:12:44.676Z,13.33
2018-03-11T12:15:11.677Z,9.67
2018-03-11T12:17:40.778Z,8.60
2018-03-11T12:20:08.132Z,13.17
2018-03-11T12:22:35.238Z,12.30
2018-03-11T12:25:04.177Z,16.47
2018-03-11T12:27:31.222Z,13.27
2018-03-11T12:29:58.273Z,12.77
2018-03-11T12:32:27.215Z,13.63
2018-03-11T12:34:54.206Z,17.93
2018-03-11T12:37:22.694Z,17.53
2018-03-11T12:39:54.215Z,11.37
2018-03-11T12:42:21.297Z,9.77
2018-03-11T12:44:48.852Z,12.63
2018-03-11T12:47:17.176Z,12.47
2018-03-11T12:49:44.289Z,11.77
2018-03-11T12:52:11.329Z,11.47
2018-03-11T12:54:38.376Z,12.30
2018-03-11T12:57:05.470Z,12.43
2018-03-11T12:59:32.586Z,9.70
2018-03-11T13:01:59.625Z,11.67
2018-03-11T13:04:26.673Z,12.57
2018-03-11T13:06:53.620Z,10.40
2018-03-11T13:09:22.688Z,12.03
2018-03-11T13:11:49.765Z,10.33
2018-03-11T13:14:16.812Z,11.63
2018-03-11T13:16:47.450Z,8.43
2018-03-11T13:19:15.405Z,10.60
2018-03-11T13:21:43.180Z,13.03
2018-03-11T13:24:25.698Z,11.40
2018-03-11T13:27:09.990Z,10.73
2018-03-11T13:29:50.373Z,10.47
2018-03-11T13:32:23.543Z,10.30
2018-03-11T13:35:09.421Z,10.43
2018-03-11T13:37:56.035Z,10.20
2018-03-11T13:40:38.478Z,9.20
2018-03-11T13:43:05.907Z,10.63
2018-03-11T13:45:39.265Z,9.97
2018-03-11T13:48:06.615Z,11.47
2018-03-11T13:50:33.971Z,11.20
2018-03-11T13:53:07.014Z,11.20
2018-03-11T13:55:34.136Z,10.67
2018-03-11T13:58:07.203Z,9.90
2018-03-11T14:00:35.169Z,12.73
2018-03-11T14:03:02.227Z,14.13
2018-03-11T14:05:30.930Z,14.33
2018-03-11T14:07:57.955Z,12.10
2018-03-11T14:10:25.172Z,14.73
2018-03-11T14:12:54.848Z,6.83
2018-03-11T14:15:21.864Z,14.93
2018-03-11T14:17:48.914Z,14.30
2018-03-11T14:20:15.966Z,14.40
2018-03-11T14:22:43.010Z,13.23
2018-03-11T14:25:10.058Z,12.00
2018-03-11T14:27:37.113Z,9.93
2018-03-11T14:30:04.156Z,12.90
2018-03-11T14:32:32.535Z,13.07
2018-03-11T14:35:01.330Z,14.73
2018-03-11T14:37:28.373Z,8.60
2018-03-11T14:39:55.524Z,9.87
2018-03-11T14:42:23.903Z,12.13
2018-03-11T14:44:50.949Z,10.37
2018-03-11T14:47:17.940Z,12.60
2018-03-11T14:49:45.000Z,11.90
2018-03-11T14:52:12.507Z,12.70
2018-03-11T14:54:39.558Z,13.57
2018-03-11T14:57:06.502Z,14.33
2018-03-11T14:59:33.456Z,12.77
2018-03-11T15:02:01.317Z,11.90
2018-03-11T15:04:28.370Z,12.20
2018-03-11T15:06:55.617Z,14.90
2018-03-11T15:09:22.672Z,15.60
2018-03-11T15:11:50.947Z,13.80
2018-03-11T15:14:17.996Z,13.20
2018-03-11T15:16:45.973Z,11.30
2018-03-11T15:19:13.017Z,11.53
2018-03-11T15:21:41.087Z,9.27
2018-03-11T15:24:08.036Z,7.83
2018-03-11T15:26:36.205Z,7.93
2018-03-11T15:29:03.263Z,10.97
2018-03-11T15:31:30.199Z,7.57
2018-03-11T15:33:58.174Z,4.73
2018-03-11T15:36:25.220Z,4.47
2018-03-11T15:38:52.265Z,5.00
2018-03-11T15:41:19.212Z,8.53
2018-03-11T15:43:46.363Z,8.00
2018-03-11T15:46:13.411Z,4.20
2018-03-11T15:48:40.561Z,6.67
2018-03-11T15:51:07.923Z,4.30
2018-03-11T15:53:34.865Z,6.80
2018-03-11T15:56:02.840Z,6.43
2018-03-11T15:58:31.110Z,7.20
2018-03-11T16:00:58.160Z,5.80
2018-03-11T16:03:25.109Z,7.10
2018-03-11T16:05:52.155Z,6.67
2018-03-11T16:08:19.208Z,12.77
2018-03-11T16:10:48.134Z,4.30
2018-03-11T16:13:15.143Z,6.60
2018-03-11T16:15:42.089Z,6.83
2018-03-11T16:18:09.140Z,5.60
2018-03-11T16:20:36.192Z,5.83
2018-03-11T16:23:03.235Z,6.10
2018-03-11T16:25:30.336Z,5.43
2018-03-11T16:27:58.401Z,6.57
2018-03-11T16:30:25.409Z,8.13
2018-03-11T16:32:52.452Z,8.43
2018-03-11T16:38:00.885Z,6.90
2018-03-11T16:40:27.934Z,8.43
2018-03-11T16:42:54.987Z,7.47
2018-03-11T16:45:22.031Z,8.23
2018-03-11T16:47:49.083Z,8.47
2018-03-11T16:50:17.056Z,5.17
2018-03-11T16:52:44.098Z,2.90
2018-03-11T16:55:11.454Z,8.73
2018-03-11T16:57:38.507Z,9.20
2018-03-11T17:00:05.551Z,6.00
2018-03-11T17:02:32.652Z,6.97
2018-03-11T17:04:59.653Z,4.37
2018-03-11T17:07:29.496Z,4.77
2018-03-11T17:09:56.817Z,4.20
2018-03-11T17:12:23.871Z,8.13
2018-03-11T17:14:50.914Z,4.10
2018-03-11T17:17:17.963Z,7.47
2018-03-11T17:19:44.946Z,5.50
2018-03-11T17:22:12.674Z,9.03
2018-03-11T17:24:40.032Z,5.83
2018-03-11T17:27:07.083Z,9.13
2018-03-11T17:29:34.025Z,6.53
2018-03-11T17:32:01.078Z,5.83
2018-03-11T17:34:28.634Z,10.73
2018-03-11T17:36:57.423Z,8.30
2018-03-11T17:39:25.084Z,8.87
2018-03-11T17:41:52.236Z,9.67
2018-03-11T17:44:19.290Z,8.37
2018-03-11T17:46:47.870Z,6.70
2018-03-11T17:49:14.918Z,7.97
2018-03-11T17:51:41.972Z,5.77
2018-03-11T17:54:10.141Z,7.37
2018-03-11T17:56:37.369Z,6.10
2018-03-11T17:59:04.279Z,7.43
2018-03-11T18:01:32.622Z,6.53
2018-03-11T18:04:01.234Z,7.63
2018-03-11T18:06:28.258Z,8.13
2018-03-11T18:08:56.451Z,5.67
2018-03-11T18:11:23.578Z,5.00
2018-03-11T18:13:50.633Z,7.43
2018-03-11T18:16:17.678Z,6.77
2018-03-11T18:18:44.953Z,6.73
2018-03-11T18:21:12.002Z,8.60
2018-03-11T18:23:39.024Z,8.40
2018-03-11T18:26:07.097Z,6.63
2018-03-11T18:28:34.042Z,6.43
2018-03-11T18:31:01.092Z,4.00
2018-03-11T18:33:28.144Z,7.97
2018-03-11T18:35:55.190Z,5.10
2018-03-11T18:38:22.240Z,4.23
2018-03-11T18:40:49.292Z,6.30
2018-03-11T18:43:17.461Z,5.77
2018-03-11T18:45:44.611Z,4.90
2018-03-11T18:48:11.666Z,5.67
2018-03-11T18:50:39.015Z,6.83
2018-03-11T18:53:06.064Z,6.03
2018-03-11T18:55:33.010Z,6.33
2018-03-11T19:00:42.473Z,6.80
2018-03-11T19:03:09.516Z,6.87
2018-03-11T19:05:36.569Z,9.87
2018-03-11T19:08:03.562Z,7.13
2018-03-11T19:10:30.559Z,6.70
2018-03-11T19:12:57.613Z,5.33
2018-03-11T19:15:25.272Z,6.17
2018-03-11T19:18:12.857Z,8.47
2018-03-11T19:21:02.892Z,7.13
2018-03-11T19:23:32.437Z,8.87
2018-03-11T19:25:59.449Z,6.40
2018-03-11T19:28:26.490Z,7.37
2018-03-11T19:30:55.791Z,6.63
2018-03-11T19:33:22.840Z,6.47
2018-03-11T19:35:49.895Z,8.03
2018-03-11T19:38:17.247Z,8.37
2018-03-11T19:40:45.166Z,7.67
2018-03-11T19:43:12.471Z,7.83
2018-03-11T19:45:40.541Z,7.47
2018-03-11T19:48:07.590Z,6.20
2018-03-11T19:50:34.643Z,7.33
2018-03-11T19:53:01.685Z,7.37
2018-03-11T19:55:29.144Z,7.73
2018-03-11T19:57:56.194Z,7.07
2018-03-11T20:00:24.012Z,5.27
2018-03-11T20:02:51.212Z,5.83
2018-03-11T20:05:18.566Z,7.60
2018-03-11T20:07:45.515Z,4.20
2018-03-11T20:10:12.772Z,6.07
2018-03-11T20:12:40.430Z,6.13
2018-03-11T20:15:07.381Z,6.27
2018-03-11T20:17:34.424Z,6.60
2018-03-11T20:20:01.472Z,6.40
2018-03-11T20:22:28.420Z,8.73
2018-03-11T20:24:57.710Z,7.73
2018-03-11T20:27:24.679Z,6.77
2018-03-11T20:29:51.661Z,7.70
2018-03-11T20:32:18.666Z,10.60
2018-03-11T20:34:45.914Z,6.97
2018-03-11T20:37:14.503Z,10.03
2018-03-11T20:39:41.547Z,4.73
2018-03-11T20:42:08.548Z,5.70
2018-03-11T20:44:35.543Z,11.73
2018-03-11T20:47:02.801Z,9.20
2018-03-11T20:49:33.232Z,8.03
2018-03-11T20:52:01.096Z,13.03
2018-03-11T20:54:28.139Z,7.73
2018-03-11T20:56:56.463Z,14.77
2018-03-11T20:59:23.470Z,13.73
2018-03-11T21:01:50.824Z,13.63
2018-03-11T21:04:18.675Z,11.40
2018-03-11T21:06:45.637Z,9.80
2018-03-11T21:09:12.690Z,7.73
2018-03-11T21:11:39.736Z,9.00
2018-03-11T21:14:07.605Z,10.27
2018-03-11T21:16:34.647Z,5.73
2018-03-11T21:19:02.927Z,8.23
2018-03-11T21:21:29.984Z,12.87
2018-03-11T21:23:57.021Z,11.27
2018-03-11T21:26:25.136Z,10.40
2018-03-11T21:28:52.352Z,13.30
2018-03-11T21:31:19.909Z,9.67
2018-03-11T21:33:46.993Z,11.47
2018-03-11T21:36:14.005Z,10.63
2018-03-11T21:38:42.384Z,12.07
2018-03-11T21:41:10.564Z,14.57
2018-03-11T21:43:37.812Z,10.30
2018-03-11T21:46:04.865Z,10.00
2018-03-11T21:48:31.909Z,12.37
2018-03-11T21:51:00.089Z,13.67
2018-03-11T21:53:27.133Z,13.10
2018-03-11T21:55:54.181Z,13.27
2018-03-11T21:58:21.271Z,14.13
2018-03-11T22:00:48.795Z,11.77
2018-03-11T22:03:17.170Z,12.67
2018-03-11T22:05:44.255Z,12.80
2018-03-11T22:08:12.296Z,13.80
2018-03-11T22:10:39.340Z,6.53
2018-03-11T22:13:06.410Z,16.17
2018-03-11T22:15:34.564Z,12.87
2018-03-11T22:18:01.715Z,10.83
2018-03-11T22:20:29.684Z,11.57
2018-03-11T22:22:56.738Z,18.23
2018-03-11T22:25:23.781Z,14.50
2018-03-11T22:27:51.754Z,6.33
2018-03-11T22:30:18.805Z,7.17
2018-03-11T22:32:45.746Z,12.20
2018-03-11T22:35:12.896Z,15.00
2018-03-11T22:37:39.950Z,19.77
2018-03-11T22:40:07.302Z,16.43
2018-03-11T22:42:34.350Z,20.03
2018-03-11T22:45:01.296Z,17.17
2018-03-11T22:47:28.346Z,14.67
2018-03-11T22:49:55.400Z,8.63
2018-03-11T22:52:24.591Z,17.37
2018-03-11T22:54:51.640Z,12.03
2018-03-11T22:57:19.308Z,12.60
2018-03-11T22:59:46.351Z,15.20
2018-03-11T23:02:14.731Z,12.77
2018-03-11T23:04:42.302Z,14.03
2018-03-11T23:07:09.340Z,9.73
2018-03-11T23:09:36.389Z,5.57
2018-03-11T23:12:04.563Z,8.47
2018-03-11T23:14:32.843Z,6.10
2018-03-11T23:17:01.432Z,7.17
2018-03-11T23:19:28.583Z,6.43
2018-03-11T23:21:57.270Z,10.20
2018-03-11T23:24:24.312Z,8.00
2018-03-11T23:26:52.589Z,10.53
2018-03-11T23:29:19.644Z,14.97
2018-03-11T23:31:47.916Z,11.00
2018-03-11T23:34:14.964Z,14.57
2018-03-11T23:36:42.018Z,9.40
2018-03-11T23:39:09.006Z,11.17
2018-03-11T23:41:37.030Z,9.20
2018-03-11T23:44:04.393Z,14.53
2018-03-11T23:46:31.434Z,8.33
2018-03-11T23:48:58.483Z,7.17
2018-03-11T23:51:27.074Z,12.13
2018-03-11T23:53:55.347Z,6.20
2018-03-11T23:56:22.298Z,11.17
2018-03-11T23:58:49.360Z,7.87
